createdAt,value
2022-11-25T00:01:24.601Z,1.20
2022-11-25T00:03:54.234Z,1.20
2022-11-25T00:06:30.079Z,1.20
2022-11-25T00:09:03.508Z,1.20
2022-11-25T00:11:30.729Z,1.10
2022-11-25T00:13:58.719Z,1.20
2022-11-25T00:16:29.460Z,1.10
2022-11-25T00:18:58.874Z,1.10
2022-11-25T00:21:32.600Z,1.00
2022-11-25T00:24:04.622Z,1.00
2022-11-25T00:26:34.037Z,1.00
2022-11-25T00:29:03.566Z,0.90
2022-11-25T00:31:34.270Z,0.90
2022-11-25T00:34:01.520Z,0.90
2022-11-25T00:36:31.884Z,0.90
2022-11-25T00:39:07.169Z,0.80
2022-11-25T00:41:52.512Z,0.80
2022-11-25T00:44:40.834Z,0.80
2022-11-25T00:47:12.903Z,0.80
2022-11-25T00:49:42.956Z,0.80
2022-11-25T00:52:13.213Z,0.70
2022-11-25T00:54:40.758Z,0.70
2022-11-25T00:57:08.107Z,0.70
2022-11-25T00:59:35.448Z,0.70
2022-11-25T01:02:02.726Z,0.60
2022-11-25T01:04:29.998Z,0.60
2022-11-25T01:07:00.242Z,0.60
2022-11-25T01:09:28.319Z,0.60
2022-11-25T01:11:55.594Z,0.60
2022-11-25T01:14:23.917Z,0.50
2022-11-25T01:16:51.370Z,0.50
2022-11-25T01:19:20.052Z,0.50
2022-11-25T01:21:47.534Z,0.50
2022-11-25T01:24:16.377Z,0.50
2022-11-25T01:26:45.231Z,0.40
2022-11-25T01:29:18.748Z,0.50
2022-11-25T01:31:46.773Z,0.40
2022-11-25T01:34:17.349Z,0.40
2022-11-25T01:36:45.394Z,0.50
2022-11-25T01:39:28.675Z,0.50
2022-11-25T01:41:59.381Z,0.50
2022-11-25T01:44:31.487Z,0.50
2022-11-25T01:47:07.655Z,0.50
2022-11-25T01:49:37.513Z,0.50
2022-11-25T01:52:25.466Z,0.50
2022-11-25T01:55:15.908Z,0.50
2022-11-25T01:58:00.120Z,0.50
2022-11-25T02:00:27.356Z,0.50
2022-11-25T02:02:57.813Z,0.50
2022-11-25T02:06:04.982Z,0.60
2022-11-25T02:08:33.601Z,0.60
2022-11-25T02:11:05.036Z,0.50
2022-11-25T02:13:34.010Z,0.50
2022-11-25T02:16:01.447Z,0.60
2022-11-25T02:18:28.989Z,0.50
2022-11-25T02:20:55.843Z,0.50
2022-11-25T02:23:31.444Z,0.60
2022-11-25T02:25:58.253Z,0.50
2022-11-25T02:28:28.093Z,0.60
2022-11-25T02:30:55.079Z,0.50
2022-11-25T02:33:22.004Z,0.50
2022-11-25T02:35:58.394Z,0.60
2022-11-25T02:38:57.701Z,0.60
2022-11-25T02:41:31.709Z,0.60
2022-11-25T02:43:59.091Z,0.60
2022-11-25T02:46:27.594Z,0.60
2022-11-25T02:49:11.690Z,0.60
2022-11-25T02:51:40.749Z,0.60
2022-11-25T02:54:07.698Z,0.60
2022-11-25T02:56:36.269Z,0.60
2022-11-25T02:59:03.658Z,0.60
2022-11-25T03:01:31.514Z,0.60
2022-11-25T03:03:59.273Z,0.70
2022-11-25T03:06:26.282Z,0.70
2022-11-25T03:08:52.987Z,0.70
2022-11-25T03:11:19.761Z,0.70
2022-11-25T03:13:46.421Z,0.70
2022-11-25T03:16:13.300Z,0.70
2022-11-25T03:18:40.034Z,0.70
2022-11-25T03:21:07.460Z,0.70
2022-11-25T03:23:34.187Z,0.70
2022-11-25T03:26:05.709Z,0.70
2022-11-25T03:28:32.425Z,0.80
2022-11-25T03:30:59.099Z,0.70
2022-11-25T03:33:25.796Z,0.70
2022-11-25T03:35:52.485Z,0.80
2022-11-25T03:38:19.192Z,0.80
2022-11-25T03:40:47.261Z,0.80
2022-11-25T03:43:13.959Z,0.80
2022-11-25T03:45:40.702Z,0.90
2022-11-25T03:48:07.439Z,0.80
2022-11-25T03:50:34.141Z,0.90
2022-11-25T03:53:00.854Z,0.90
2022-11-25T03:55:27.672Z,0.90
2022-11-25T03:57:54.399Z,0.90
2022-11-25T04:00:21.079Z,0.90
2022-11-25T04:02:47.917Z,0.90
2022-11-25T04:05:14.737Z,0.90
2022-11-25T04:07:41.498Z,0.90
2022-11-25T04:10:09.112Z,1.00
2022-11-25T04:12:47.700Z,1.00
2022-11-25T04:15:16.905Z,0.90
2022-11-25T04:17:44.231Z,1.00
2022-11-25T04:20:13.150Z,1.00
2022-11-25T04:22:40.030Z,1.00
2022-11-25T04:25:07.742Z,1.00
2022-11-25T04:27:34.507Z,1.00
2022-11-25T04:30:01.278Z,1.00
2022-11-25T04:32:28.091Z,1.00
2022-11-25T04:34:54.866Z,1.00
2022-11-25T04:37:21.849Z,1.00
2022-11-25T04:39:48.615Z,1.00
2022-11-25T04:42:34.340Z,1.00
2022-11-25T04:47:49.786Z,1.00
2022-11-25T04:50:19.417Z,1.10
2022-11-25T04:52:46.124Z,1.10
2022-11-25T04:55:12.838Z,1.10
2022-11-25T04:57:39.625Z,1.10
2022-11-25T05:00:07.802Z,1.20
2022-11-25T05:02:34.532Z,1.10
2022-11-25T05:05:01.822Z,1.10
2022-11-25T05:07:29.001Z,1.20
2022-11-25T05:09:56.456Z,1.20
2022-11-25T05:12:26.106Z,1.20
2022-11-25T05:14:53.222Z,1.20
2022-11-25T05:17:23.271Z,1.20
2022-11-25T05:19:50.838Z,1.20
2022-11-25T05:22:21.450Z,1.20
2022-11-25T05:24:48.356Z,1.30
2022-11-25T05:27:15.862Z,1.30
2022-11-25T05:29:42.962Z,1.30
2022-11-25T05:32:10.545Z,1.30
2022-11-25T05:34:38.103Z,1.30
2022-11-25T05:37:05.309Z,1.30
2022-11-25T05:39:32.015Z,1.30
2022-11-25T05:41:58.768Z,1.30
2022-11-25T05:44:25.505Z,1.30
2022-11-25T05:46:52.434Z,1.30
2022-11-25T05:49:19.773Z,1.30
2022-11-25T05:51:47.595Z,1.30
2022-11-25T05:54:14.532Z,1.30
2022-11-25T05:56:41.359Z,1.30
2022-11-25T05:59:08.042Z,1.30
2022-11-25T06:01:34.890Z,1.20
2022-11-25T06:04:03.062Z,1.20
2022-11-25T06:06:30.544Z,1.20
2022-11-25T06:08:57.394Z,1.10
2022-11-25T06:11:25.598Z,1.20
2022-11-25T06:13:52.418Z,1.10
2022-11-25T06:16:22.527Z,1.10
2022-11-25T06:18:49.511Z,1.10
2022-11-25T06:21:16.819Z,1.10
2022-11-25T06:23:46.091Z,1.10
2022-11-25T06:26:19.681Z,1.10
2022-11-25T06:28:47.075Z,1.10
2022-11-25T06:31:17.286Z,1.20
2022-11-25T06:33:47.665Z,1.10
2022-11-25T06:36:17.597Z,1.20
2022-11-25T06:38:49.807Z,1.20
2022-11-25T06:41:17.185Z,1.20
2022-11-25T06:43:43.870Z,1.20
2022-11-25T06:46:13.811Z,1.30
2022-11-25T06:48:40.961Z,1.30
2022-11-25T06:51:10.998Z,1.30
2022-11-25T06:53:38.491Z,1.40
2022-11-25T06:56:26.408Z,1.40
2022-11-25T06:58:54.926Z,1.40
2022-11-25T07:01:24.662Z,1.40
2022-11-25T07:03:54.333Z,1.40
2022-11-25T07:06:21.649Z,1.40
2022-11-25T07:08:49.143Z,1.40
2022-11-25T07:11:31.995Z,1.40
2022-11-25T07:14:01.904Z,1.50
2022-11-25T07:16:29.583Z,1.50
2022-11-25T07:18:56.467Z,1.60
2022-11-25T07:21:25.101Z,1.60
2022-11-25T07:23:52.747Z,1.60
2022-11-25T07:26:22.463Z,1.60
2022-11-25T07:28:50.784Z,1.60
2022-11-25T07:31:24.717Z,1.70
2022-11-25T07:34:00.006Z,1.70
2022-11-25T07:36:27.955Z,1.80
2022-11-25T07:38:55.082Z,1.90
2022-11-25T07:41:24.255Z,2.00
2022-11-25T07:43:54.041Z,2.10
2022-11-25T07:46:27.327Z,2.20
2022-11-25T07:48:56.511Z,2.20
2022-11-25T07:51:28.347Z,2.30
2022-11-25T07:53:57.241Z,2.30
2022-11-25T07:56:24.724Z,2.40
2022-11-25T07:58:51.671Z,2.40
2022-11-25T08:01:19.482Z,2.50
2022-11-25T08:03:48.381Z,2.60
2022-11-25T08:06:18.083Z,2.60
2022-11-25T08:08:45.361Z,2.70
2022-11-25T08:11:24.484Z,2.80
2022-11-25T08:13:51.671Z,2.80
2022-11-25T08:16:20.889Z,2.90
2022-11-25T08:18:48.264Z,3.00
2022-11-25T08:21:16.435Z,3.10
2022-11-25T08:23:44.093Z,3.20
2022-11-25T08:26:14.218Z,3.40
2022-11-25T08:28:41.798Z,3.50
2022-11-25T08:31:11.923Z,3.60
2022-11-25T08:36:13.654Z,3.80
2022-11-25T08:38:40.714Z,3.90
2022-11-25T08:41:13.542Z,4.00
2022-11-25T08:43:40.939Z,4.10
2022-11-25T08:46:14.939Z,4.10
2022-11-25T08:48:42.160Z,4.20
2022-11-25T08:51:25.843Z,4.20
2022-11-25T08:53:52.818Z,4.30
2022-11-25T08:56:25.738Z,4.40
2022-11-25T08:58:53.273Z,4.50
2022-11-25T09:01:21.352Z,4.50
2022-11-25T09:03:50.771Z,4.60
2022-11-25T09:06:19.081Z,4.70
2022-11-25T09:08:46.560Z,4.70
2022-11-25T09:11:13.602Z,4.80
2022-11-25T09:13:40.788Z,4.80
2022-11-25T09:16:08.858Z,4.90
2022-11-25T09:18:37.376Z,5.00
2022-11-25T09:21:12.497Z,5.10
2022-11-25T09:23:39.772Z,5.20
2022-11-25T09:26:07.473Z,5.20
2022-11-25T09:28:35.518Z,5.30
2022-11-25T09:31:09.885Z,5.40
2022-11-25T09:33:37.318Z,5.50
2022-11-25T09:36:04.611Z,5.60
2022-11-25T09:38:31.314Z,5.70
2022-11-25T09:41:02.961Z,5.70
2022-11-25T09:43:51.231Z,5.70
2022-11-25T09:46:48.577Z,5.80
2022-11-25T09:49:56.439Z,5.90
2022-11-25T09:52:41.931Z,6.00
2022-11-25T09:55:15.701Z,6.10
2022-11-25T09:58:16.191Z,6.10
2022-11-25T10:00:47.791Z,6.10
2022-11-25T10:03:37.710Z,6.30
2022-11-25T10:06:40.735Z,6.40
2022-11-25T10:09:16.257Z,6.50
2022-11-25T10:11:54.008Z,6.50
2022-11-25T10:14:35.145Z,6.50
2022-11-25T10:17:10.066Z,6.50
2022-11-25T10:19:48.742Z,6.60
2022-11-25T10:22:24.362Z,6.80
2022-11-25T10:24:54.543Z,7.20
2022-11-25T10:27:40.818Z,7.70
2022-11-25T10:30:23.830Z,7.90
2022-11-25T10:33:13.786Z,8.00
2022-11-25T10:35:47.226Z,8.20
2022-11-25T10:38:23.173Z,8.50
2022-11-25T10:40:52.315Z,8.80
2022-11-25T10:43:19.195Z,9.20
2022-11-25T10:46:09.229Z,9.50
2022-11-25T10:48:52.636Z,9.70
2022-11-25T10:51:38.217Z,9.90
2022-11-25T10:54:13.300Z,10.00
2022-11-25T10:56:57.340Z,10.10
2022-11-25T10:59:42.158Z,10.30
2022-11-25T11:02:28.460Z,10.30
2022-11-25T11:05:02.349Z,10.20
2022-11-25T11:07:34.728Z,10.10
2022-11-25T11:10:25.446Z,9.90
2022-11-25T11:13:02.569Z,9.80
2022-11-25T11:15:41.518Z,9.70
2022-11-25T11:18:23.782Z,9.70
2022-11-25T11:20:54.459Z,9.70
2022-11-25T11:23:21.793Z,9.80
2022-11-25T11:26:04.238Z,9.90
2022-11-25T11:28:38.072Z,10.00
2022-11-25T11:31:25.416Z,10.00
2022-11-25T11:34:11.314Z,10.10
2022-11-25T11:37:16.886Z,10.20
2022-11-25T11:40:02.425Z,10.30
2022-11-25T11:42:38.079Z,10.40
2022-11-25T11:45:32.611Z,10.50
2022-11-25T11:48:22.804Z,10.50
2022-11-25T11:51:11.960Z,10.60
2022-11-25T11:53:51.357Z,10.70
2022-11-25T11:56:36.992Z,10.80
2022-11-25T11:59:17.501Z,11.00
2022-11-25T12:02:09.184Z,11.10
2022-11-25T12:04:39.016Z,11.20
2022-11-25T12:07:19.987Z,11.30
2022-11-25T12:10:06.255Z,11.20
2022-11-25T12:12:40.699Z,11.20
2022-11-25T12:15:19.515Z,11.00
2022-11-25T12:17:54.578Z,11.00
2022-11-25T12:20:41.200Z,10.90
2022-11-25T12:23:23.894Z,10.90
2022-11-25T12:25:54.642Z,10.80
2022-11-25T12:28:29.106Z,10.70
2022-11-25T12:31:17.511Z,10.60
2022-11-25T12:33:44.477Z,10.60
2022-11-25T12:36:47.028Z,10.50
2022-11-25T12:39:36.618Z,10.50
2022-11-25T12:42:19.551Z,10.40
2022-11-25T12:44:59.401Z,10.40
2022-11-25T12:47:26.760Z,10.30
2022-11-25T12:49:55.649Z,10.30
2022-11-25T12:52:47.515Z,10.30
2022-11-25T12:55:27.999Z,10.30
2022-11-25T12:58:17.774Z,10.30
2022-11-25T13:01:09.276Z,10.20
2022-11-25T13:03:53.834Z,10.20
2022-11-25T13:06:48.206Z,10.30
2022-11-25T13:09:14.855Z,10.30
2022-11-25T13:11:41.764Z,10.30
2022-11-25T13:14:44.760Z,10.30
2022-11-25T13:17:15.209Z,10.40
2022-11-25T13:19:42.319Z,10.50
2022-11-25T13:22:21.359Z,10.50
2022-11-25T13:24:48.166Z,10.60
2022-11-25T13:27:31.534Z,10.70
2022-11-25T13:30:00.043Z,10.80
2022-11-25T13:32:31.243Z,10.90
2022-11-25T13:35:24.473Z,11.00
2022-11-25T13:37:51.426Z,11.10
2022-11-25T13:40:28.489Z,11.20
2022-11-25T13:42:56.843Z,11.30
2022-11-25T13:45:34.985Z,11.40
2022-11-25T13:48:17.046Z,11.40
2022-11-25T13:51:09.653Z,11.50
2022-11-25T13:53:35.723Z,11.40
2022-11-25T13:56:24.430Z,11.40
2022-11-25T13:59:09.943Z,11.40
2022-11-25T14:02:00.003Z,11.40
2022-11-25T14:04:50.678Z,11.30
2022-11-25T14:07:37.710Z,11.30
2022-11-25T14:10:31.346Z,11.30
2022-11-25T14:13:07.105Z,11.30
2022-11-25T14:15:55.623Z,11.20
2022-11-25T14:19:12.061Z,11.10
2022-11-25T14:21:48.452Z,11.10
2022-11-25T14:24:30.389Z,11.00
2022-11-25T14:26:59.208Z,11.00
2022-11-25T14:29:31.790Z,10.90
2022-11-25T14:32:20.033Z,10.90
2022-11-25T14:35:01.976Z,10.80
2022-11-25T14:38:00.905Z,10.80
2022-11-25T14:40:44.290Z,10.70
2022-11-25T14:43:22.434Z,10.60
2022-11-25T14:46:12.937Z,10.50
2022-11-25T14:48:39.774Z,10.30
2022-11-25T14:51:09.741Z,10.20
2022-11-25T14:53:48.300Z,10.10
2022-11-25T14:56:22.162Z,10.00
2022-11-25T14:58:51.314Z,9.90
2022-11-25T15:01:26.762Z,9.80
2022-11-25T15:04:12.429Z,9.80
2022-11-25T15:06:42.744Z,9.70
2022-11-25T15:09:41.747Z,9.60
2022-11-25T15:12:15.075Z,9.50
2022-11-25T15:14:47.174Z,9.30
2022-11-25T15:17:31.928Z,9.30
2022-11-25T15:20:03.687Z,9.20
2022-11-25T15:22:30.543Z,9.10
2022-11-25T15:25:08.696Z,9.10
2022-11-25T15:27:42.701Z,9.00
2022-11-25T15:30:27.099Z,8.90
2022-11-25T15:32:55.115Z,8.90
2022-11-25T15:35:26.972Z,8.80
2022-11-25T15:37:56.697Z,8.80
2022-11-25T15:40:36.623Z,8.70
2022-11-25T15:43:06.670Z,8.70
2022-11-25T15:45:44.115Z,8.60
2022-11-25T15:48:28.770Z,8.60
2022-11-25T15:51:43.130Z,8.50
2022-11-25T15:54:12.830Z,8.40
2022-11-25T15:56:44.147Z,8.40
2022-11-25T15:59:56.374Z,8.40
2022-11-25T16:02:35.086Z,8.40
2022-11-25T16:05:14.250Z,8.30
2022-11-25T16:07:50.368Z,8.30
2022-11-25T16:10:45.236Z,8.30
2022-11-25T16:13:22.306Z,8.40
2022-11-25T16:16:00.716Z,8.40
2022-11-25T16:18:52.494Z,8.40
2022-11-25T16:21:23.921Z,8.30
2022-11-25T16:24:06.773Z,8.30
2022-11-25T16:26:54.228Z,8.30
2022-11-25T16:29:31.386Z,8.30
2022-11-25T16:31:59.134Z,8.20
2022-11-25T16:34:26.833Z,8.30
2022-11-25T16:36:54.044Z,8.30
2022-11-25T16:39:20.847Z,8.30
2022-11-25T16:41:59.206Z,8.20
2022-11-25T16:44:27.393Z,8.30
2022-11-25T16:46:54.883Z,8.20
2022-11-25T16:49:22.725Z,8.20
2022-11-25T16:51:53.410Z,8.30
2022-11-25T16:54:22.270Z,8.30
2022-11-25T16:56:51.466Z,8.40
2022-11-25T16:59:30.421Z,8.40
2022-11-25T17:01:58.037Z,8.40
2022-11-25T17:04:24.878Z,8.40
2022-11-25T17:07:16.860Z,8.40
2022-11-25T17:09:39.041Z,8.40
2022-11-25T17:12:10.342Z,8.40
2022-11-25T17:14:38.271Z,8.40
2022-11-25T17:17:05.416Z,8.40
2022-11-25T17:19:32.412Z,8.30
2022-11-25T17:21:59.171Z,8.30
2022-11-25T17:24:26.105Z,8.30
2022-11-25T17:27:00.300Z,8.30
2022-11-25T17:29:35.189Z,8.30
2022-11-25T17:32:02.774Z,8.20
2022-11-25T17:34:30.414Z,8.20
2022-11-25T17:36:59.375Z,8.20
2022-11-25T17:39:26.087Z,8.20
2022-11-25T17:41:52.886Z,8.20
2022-11-25T17:44:27.558Z,8.20
2022-11-25T17:46:55.810Z,8.20
2022-11-25T17:49:22.951Z,8.20
2022-11-25T17:51:49.730Z,8.10
2022-11-25T17:54:16.621Z,8.10
2022-11-25T17:56:49.157Z,8.10
2022-11-25T17:59:25.397Z,8.10
2022-11-25T18:01:52.651Z,8.10
2022-11-25T18:04:24.327Z,8.10
2022-11-25T18:06:51.297Z,8.10
2022-11-25T18:09:18.644Z,8.10
2022-11-25T18:11:51.810Z,8.10
2022-11-25T18:14:37.088Z,8.10
2022-11-25T18:17:06.533Z,8.10
2022-11-25T18:19:34.724Z,8.10
2022-11-25T18:22:10.870Z,8.10
2022-11-25T18:24:37.989Z,8.00
2022-11-25T18:27:06.822Z,8.00
2022-11-25T18:29:33.906Z,8.00
2022-11-25T18:32:00.696Z,8.00
2022-11-25T18:34:27.783Z,7.90
2022-11-25T18:36:54.864Z,7.90
2022-11-25T18:39:21.706Z,7.80
2022-11-25T18:41:49.872Z,7.80
2022-11-25T18:44:26.141Z,7.70
2022-11-25T18:46:53.640Z,7.60
2022-11-25T18:49:20.824Z,7.60
2022-11-25T18:51:47.816Z,7.50
2022-11-25T18:54:14.668Z,7.50
2022-11-25T18:56:42.060Z,7.60
2022-11-25T18:59:14.930Z,7.70
2022-11-25T19:01:45.380Z,7.70
2022-11-25T19:04:16.448Z,7.60
2022-11-25T19:06:43.695Z,7.60
2022-11-25T19:09:10.719Z,7.60
2022-11-25T19:11:40.836Z,7.60
2022-11-25T19:14:32.115Z,7.50
2022-11-25T19:17:03.023Z,7.60
2022-11-25T19:19:30.136Z,7.70
2022-11-25T19:21:58.323Z,7.80
2022-11-25T19:24:25.081Z,7.80
2022-11-25T19:26:54.742Z,7.80
2022-11-25T19:29:38.789Z,7.80
2022-11-25T19:32:18.991Z,7.80
2022-11-25T19:34:49.950Z,7.70
2022-11-25T19:37:20.323Z,7.70
2022-11-25T19:39:50.369Z,7.70
2022-11-25T19:42:17.362Z,7.60
2022-11-25T19:44:45.509Z,7.60
2022-11-25T19:47:19.890Z,7.60
2022-11-25T19:49:47.418Z,7.50
2022-11-25T19:52:20.409Z,7.50
2022-11-25T19:54:47.306Z,7.40
2022-11-25T19:57:22.407Z,7.30
2022-11-25T19:59:49.427Z,7.30
2022-11-25T20:02:20.866Z,7.30
2022-11-25T20:04:50.787Z,7.20
2022-11-25T20:07:20.530Z,7.10
2022-11-25T20:09:48.140Z,7.10
2022-11-25T20:12:22.487Z,7.10
2022-11-25T20:14:50.267Z,7.10
2022-11-25T20:17:37.563Z,7.00
2022-11-25T20:20:11.275Z,6.90
2022-11-25T20:22:41.831Z,6.90
2022-11-25T20:25:10.630Z,6.90
2022-11-25T20:27:37.622Z,6.80
2022-11-25T20:30:25.343Z,6.80
2022-11-25T20:32:52.182Z,6.70
2022-11-25T20:35:19.269Z,6.70
2022-11-25T20:37:57.876Z,6.60
2022-11-25T20:40:46.482Z,6.60
2022-11-25T20:43:28.174Z,6.50
2022-11-25T20:45:55.755Z,6.50
2022-11-25T20:48:23.471Z,6.40
2022-11-25T20:50:50.350Z,6.30
2022-11-25T20:53:19.527Z,6.30
2022-11-25T20:55:47.545Z,6.20
2022-11-25T20:58:17.263Z,6.20
2022-11-25T21:00:44.014Z,6.20
2022-11-25T21:03:10.728Z,6.20
2022-11-25T21:05:37.554Z,6.30
2022-11-25T21:08:14.605Z,6.30
2022-11-25T21:10:43.022Z,6.30
2022-11-25T21:13:22.186Z,6.30
2022-11-25T21:15:54.869Z,6.30
2022-11-25T21:18:22.675Z,6.30
2022-11-25T21:20:51.625Z,6.30
2022-11-25T21:23:38.665Z,6.30
2022-11-25T21:26:11.627Z,6.30
2022-11-25T21:28:42.558Z,6.30
2022-11-25T21:31:18.213Z,6.30
2022-11-25T21:33:46.281Z,6.30
2022-11-25T21:36:24.590Z,6.30
2022-11-25T21:38:54.842Z,6.30
2022-11-25T21:41:21.476Z,6.30
2022-11-25T21:43:50.856Z,6.30
2022-11-25T21:46:21.040Z,6.30
2022-11-25T21:48:48.446Z,6.30
2022-11-25T21:51:23.913Z,6.30
2022-11-25T21:53:51.525Z,6.30
2022-11-25T21:56:28.198Z,6.30
2022-11-25T21:58:58.802Z,6.30
2022-11-25T22:01:25.967Z,6.40
2022-11-25T22:03:53.225Z,6.30
2022-11-25T22:06:28.765Z,6.30
2022-11-25T22:08:56.830Z,6.30
2022-11-25T22:11:36.351Z,6.30
2022-11-25T22:14:06.763Z,6.30
2022-11-25T22:16:36.181Z,6.30
2022-11-25T22:19:03.428Z,6.30
2022-11-25T22:21:30.320Z,6.30
2022-11-25T22:23:57.108Z,6.30
2022-11-25T22:26:32.639Z,6.30
2022-11-25T22:29:00.365Z,6.30
2022-11-25T22:31:28.185Z,6.30
2022-11-25T22:33:55.601Z,6.30
2022-11-25T22:36:28.107Z,6.40
2022-11-25T22:38:54.932Z,6.40
2022-11-25T22:41:21.802Z,6.40
2022-11-25T22:43:51.960Z,6.40
2022-11-25T22:46:19.101Z,6.40
2022-11-25T22:48:47.730Z,6.40
2022-11-25T22:51:25.935Z,6.50
2022-11-25T22:53:52.737Z,6.50
2022-11-25T22:56:20.177Z,6.50
2022-11-25T22:58:47.238Z,6.50
2022-11-25T23:01:16.183Z,6.50
2022-11-25T23:03:44.151Z,6.50
2022-11-25T23:06:12.926Z,6.50
2022-11-25T23:08:40.134Z,6.50
2022-11-25T23:11:10.246Z,6.50
2022-11-25T23:13:37.092Z,6.50
2022-11-25T23:16:04.714Z,6.50
2022-11-25T23:18:42.909Z,6.50
2022-11-25T23:21:27.917Z,6.50
2022-11-25T23:23:55.286Z,6.50
2022-11-25T23:26:22.523Z,6.60
2022-11-25T23:28:49.568Z,6.50
2022-11-25T23:31:17.032Z,6.50
2022-11-25T23:33:46.591Z,6.50
2022-11-25T23:36:17.522Z,6.50
2022-11-25T23:38:50.849Z,6.50
2022-11-25T23:41:21.922Z,6.50
2022-11-25T23:43:49.420Z,6.40
2022-11-25T23:46:18.900Z,6.40
2022-11-25T23:48:56.485Z,6.40
2022-11-25T23:51:24.454Z,6.40
2022-11-25T23:53:52.016Z,6.40
2022-11-25T23:56:19.129Z,6.40
2022-11-25T23:58:46.279Z,6.40
